createdAt,value
2023-08-11T00:01:46.955Z,86.81
2023-08-11T00:03:49.953Z,89.13
2023-08-11T00:05:54.633Z,89.97
2023-08-11T00:07:58.189Z,90.21
2023-08-11T00:10:00.889Z,91.14
2023-08-11T00:12:05.553Z,91.03
2023-08-11T00:14:08.303Z,92.21
2023-08-11T00:16:11.312Z,92.72
2023-08-11T00:18:14.089Z,94.00
2023-08-11T00:20:16.796Z,96.06
2023-08-11T00:22:19.422Z,98.52
2023-08-11T00:24:21.361Z,98.84
2023-08-11T00:26:24.076Z,99.90
2023-08-11T00:28:28.401Z,100.00
2023-08-11T00:30:30.362Z,100.00
2023-08-11T00:32:33.249Z,100.00
2023-08-11T00:34:36.509Z,100.00
2023-08-11T00:36:39.270Z,100.00
2023-08-11T00:38:42.025Z,100.00
2023-08-11T00:40:45.107Z,100.00
2023-08-11T00:42:50.567Z,100.00
2023-08-11T00:44:54.715Z,100.00
2023-08-11T00:46:57.974Z,100.00
2023-08-11T00:49:01.716Z,100.00
2023-08-11T00:51:06.608Z,100.00
2023-08-11T00:53:11.128Z,100.00
2023-08-11T00:55:14.912Z,100.00
2023-08-11T00:57:17.947Z,100.00
2023-08-11T00:59:20.690Z,100.00
2023-08-11T01:01:25.645Z,100.00
2023-08-11T01:03:28.498Z,100.00
2023-08-11T01:05:36.526Z,100.00
2023-08-11T01:07:43.932Z,100.00
2023-08-11T01:09:53.706Z,100.00
2023-08-11T01:12:07.659Z,100.00
2023-08-11T01:14:19.434Z,100.00
2023-08-11T01:16:25.830Z,100.00
2023-08-11T01:18:29.438Z,100.00
2023-08-11T01:20:32.455Z,100.00
2023-08-11T01:22:38.018Z,100.00
2023-08-11T01:24:43.588Z,100.00
2023-08-11T01:26:47.602Z,100.00
2023-08-11T01:28:54.681Z,100.00
2023-08-11T01:30:57.357Z,100.00
2023-08-11T01:33:00.166Z,100.00
2023-08-11T01:35:03.494Z,100.00
2023-08-11T01:37:05.793Z,100.00
2023-08-11T01:39:10.717Z,100.00
2023-08-11T01:41:15.650Z,100.00
2023-08-11T01:43:19.440Z,100.00
2023-08-11T01:45:23.306Z,100.00
2023-08-11T01:47:25.783Z,100.00
2023-08-11T01:49:29.335Z,100.00
2023-08-11T01:51:32.373Z,100.00
2023-08-11T01:53:35.450Z,100.00
2023-08-11T01:55:38.499Z,100.00
2023-08-11T01:57:51.995Z,100.00
2023-08-11T02:00:01.105Z,100.00
2023-08-11T02:02:04.206Z,100.00
2023-08-11T02:04:07.497Z,100.00
2023-08-11T02:06:09.497Z,100.00
2023-08-11T02:08:15.604Z,100.00
2023-08-11T02:10:18.257Z,100.00
2023-08-11T02:12:20.986Z,100.00
2023-08-11T02:14:25.081Z,100.00
2023-08-11T02:16:26.908Z,100.00
2023-08-11T02:18:29.826Z,100.00
2023-08-11T02:20:34.108Z,100.00
2023-08-11T02:22:36.937Z,100.00
2023-08-11T02:24:39.712Z,100.00
2023-08-11T02:26:42.449Z,100.00
2023-08-11T02:28:45.246Z,100.00
2023-08-11T02:30:49.348Z,100.00
2023-08-11T02:32:52.245Z,100.00
2023-08-11T02:34:55.841Z,100.00
2023-08-11T02:36:58.540Z,100.00
2023-08-11T02:39:01.436Z,100.00
2023-08-11T02:41:05.470Z,100.00
2023-08-11T02:43:08.330Z,100.00
2023-08-11T02:45:12.434Z,100.00
2023-08-11T02:47:16.665Z,100.00
2023-08-11T02:49:19.437Z,100.00
2023-08-11T02:51:21.302Z,100.00
2023-08-11T02:53:24.804Z,100.00
2023-08-11T02:55:27.524Z,100.00
2023-08-11T02:57:30.305Z,100.00
2023-08-11T02:59:33.237Z,100.00
2023-08-11T03:01:36.043Z,100.00
2023-08-11T03:03:40.911Z,100.00
2023-08-11T03:05:44.862Z,100.00
2023-08-11T03:07:47.599Z,100.00
2023-08-11T03:09:50.322Z,100.00
2023-08-11T03:11:53.103Z,100.00
2023-08-11T03:13:55.305Z,100.00
2023-08-11T03:15:59.976Z,100.00
2023-08-11T03:18:02.901Z,100.00
2023-08-11T03:20:13.638Z,100.00
2023-08-11T03:22:18.709Z,100.00
2023-08-11T03:24:21.554Z,100.00
2023-08-11T03:26:24.289Z,100.00
2023-08-11T03:28:27.002Z,100.00
2023-08-11T03:30:29.853Z,100.00
2023-08-11T03:32:32.599Z,100.00
2023-08-11T03:34:35.466Z,100.00
2023-08-11T03:36:39.446Z,100.00
2023-08-11T03:38:42.193Z,100.00
2023-08-11T03:40:44.928Z,100.00
2023-08-11T03:42:47.659Z,100.00
2023-08-11T03:44:50.520Z,100.00
2023-08-11T03:46:53.260Z,100.00
2023-08-11T03:48:55.973Z,100.00
2023-08-11T03:51:01.057Z,100.00
2023-08-11T03:53:05.380Z,100.00
2023-08-11T03:55:10.664Z,100.00
2023-08-11T03:57:14.136Z,100.00
2023-08-11T03:59:16.823Z,100.00
2023-08-11T04:01:19.547Z,100.00
2023-08-11T04:03:23.351Z,100.00
2023-08-11T04:05:26.348Z,100.00
2023-08-11T04:07:29.470Z,100.00
2023-08-11T04:09:35.276Z,100.00
2023-08-11T04:11:38.064Z,100.00
2023-08-11T04:13:40.880Z,100.00
2023-08-11T04:15:43.763Z,100.00
2023-08-11T04:17:46.453Z,100.00
2023-08-11T04:19:49.708Z,100.00
2023-08-11T04:21:52.449Z,100.00
2023-08-11T04:23:57.397Z,100.00
2023-08-11T04:26:03.213Z,100.00
2023-08-11T04:28:05.199Z,100.00
2023-08-11T04:30:09.549Z,100.00
2023-08-11T04:32:12.427Z,100.00
2023-08-11T04:34:16.578Z,100.00
2023-08-11T04:36:19.219Z,100.00
2023-08-11T04:38:21.240Z,100.00
2023-08-11T04:40:24.473Z,100.00
2023-08-11T04:42:28.781Z,100.00
2023-08-11T04:44:31.502Z,100.00
2023-08-11T04:46:34.249Z,100.00
2023-08-11T04:48:36.969Z,100.00
2023-08-11T04:50:39.739Z,100.00
2023-08-11T04:52:43.894Z,100.00
2023-08-11T04:54:48.856Z,100.00
2023-08-11T04:56:51.790Z,100.00
2023-08-11T04:58:56.167Z,100.00
2023-08-11T05:00:58.840Z,100.00
2023-08-11T05:03:01.560Z,100.00
2023-08-11T05:05:06.700Z,100.00
2023-08-11T05:07:10.278Z,100.00
2023-08-11T05:09:14.878Z,100.00
2023-08-11T05:11:19.418Z,100.00
2023-08-11T05:13:22.852Z,100.00
2023-08-11T05:15:27.053Z,100.00
2023-08-11T05:17:29.946Z,100.00
2023-08-11T05:19:32.829Z,100.00
2023-08-11T05:21:37.436Z,100.00
2023-08-11T05:23:40.158Z,100.00
2023-08-11T05:25:42.909Z,100.00
2023-08-11T05:27:46.363Z,100.00
2023-08-11T05:29:50.614Z,100.00
2023-08-11T05:31:54.778Z,100.00
2023-08-11T05:33:58.129Z,100.00
2023-08-11T05:36:01.011Z,100.00
2023-08-11T05:38:03.876Z,100.00
2023-08-11T05:40:09.708Z,100.00
2023-08-11T05:42:12.619Z,100.00
2023-08-11T05:44:14.428Z,100.00
2023-08-11T05:46:17.171Z,100.00
2023-08-11T05:48:21.273Z,100.00
2023-08-11T05:50:24.064Z,100.00
2023-08-11T05:52:26.807Z,100.00
2023-08-11T05:54:29.496Z,100.00
2023-08-11T05:56:32.177Z,100.00
2023-08-11T05:58:35.008Z,100.00
2023-08-11T06:00:37.743Z,100.00
2023-08-11T06:02:40.646Z,100.00
2023-08-11T06:04:45.843Z,100.00
2023-08-11T06:06:48.517Z,100.00
2023-08-11T06:08:51.336Z,99.86
2023-08-11T06:10:55.649Z,99.48
2023-08-11T06:12:58.458Z,98.17
2023-08-11T06:15:01.108Z,97.16
2023-08-11T06:17:04.272Z,96.87
2023-08-11T06:19:07.420Z,93.70
2023-08-11T06:21:12.182Z,90.95
2023-08-11T06:23:14.959Z,88.88
2023-08-11T06:25:17.768Z,88.53
2023-08-11T06:27:20.463Z,88.27
2023-08-11T06:29:23.162Z,87.41
2023-08-11T06:31:26.062Z,87.25
2023-08-11T06:33:28.823Z,83.29
2023-08-11T06:35:30.858Z,84.35
2023-08-11T06:37:34.925Z,83.90
2023-08-11T06:39:37.839Z,85.40
2023-08-11T06:41:40.619Z,82.16
2023-08-11T06:43:43.758Z,82.93
2023-08-11T06:45:46.854Z,81.00
2023-08-11T06:47:49.729Z,78.96
2023-08-11T06:49:52.442Z,79.93
2023-08-11T06:51:55.134Z,75.45
2023-08-11T06:53:59.336Z,78.32
2023-08-11T06:56:02.080Z,77.64
2023-08-11T06:58:04.370Z,79.07
2023-08-11T07:00:08.459Z,78.63
2023-08-11T07:02:11.345Z,79.18
2023-08-11T07:04:14.098Z,79.66
2023-08-11T07:06:17.039Z,78.35
2023-08-11T07:08:19.832Z,79.70
2023-08-11T07:10:23.909Z,76.77
2023-08-11T07:12:25.673Z,75.26
2023-08-11T07:14:28.485Z,72.39
2023-08-11T07:16:31.311Z,73.55
2023-08-11T07:18:33.102Z,70.50
2023-08-11T07:20:35.811Z,71.38
2023-08-11T07:22:38.491Z,69.29
2023-08-11T07:24:40.245Z,69.98
2023-08-11T07:26:44.352Z,67.53
2023-08-11T07:28:47.674Z,63.82
2023-08-11T07:30:50.411Z,64.90
2023-08-11T07:32:55.370Z,65.23
2023-08-11T07:34:58.531Z,63.23
2023-08-11T07:37:01.217Z,58.88
2023-08-11T07:39:20.740Z,57.93
2023-08-11T07:41:25.311Z,57.51
2023-08-11T07:43:29.410Z,56.89
2023-08-11T07:45:34.106Z,57.56
2023-08-11T07:47:36.939Z,55.81
2023-08-11T07:49:39.736Z,56.20
2023-08-11T07:51:42.761Z,55.65
2023-08-11T07:53:46.437Z,55.40
2023-08-11T07:55:49.237Z,58.47
2023-08-11T07:57:51.930Z,54.04
2023-08-11T07:59:56.010Z,52.55
2023-08-11T08:01:57.762Z,50.63
2023-08-11T08:04:00.567Z,49.65
2023-08-11T08:06:06.110Z,48.81
2023-08-11T08:08:09.105Z,46.41
2023-08-11T08:10:14.968Z,45.81
2023-08-11T08:12:17.980Z,46.25
2023-08-11T08:14:21.012Z,47.91
2023-08-11T08:16:25.146Z,48.73
2023-08-11T08:18:27.855Z,50.88
2023-08-11T08:20:32.345Z,51.48
2023-08-11T08:22:35.424Z,49.52
2023-08-11T08:24:38.173Z,49.79
2023-08-11T08:26:40.911Z,51.12
2023-08-11T08:28:43.547Z,50.86
2023-08-11T08:30:46.328Z,48.81
2023-08-11T08:32:50.447Z,48.68
2023-08-11T08:34:53.487Z,54.49
2023-08-11T08:36:56.274Z,52.44
2023-08-11T08:38:59.057Z,55.35
2023-08-11T08:41:02.264Z,53.00
2023-08-11T08:43:05.815Z,53.35
2023-08-11T08:45:10.224Z,52.26
2023-08-11T08:47:14.863Z,48.20
2023-08-11T08:49:24.354Z,53.25
2023-08-11T08:51:27.707Z,51.74
2023-08-11T08:53:30.629Z,49.97
2023-08-11T08:55:33.541Z,48.04
2023-08-11T08:57:36.249Z,47.47
2023-08-11T08:59:39.761Z,47.46
2023-08-11T09:01:43.230Z,45.60
2023-08-11T09:03:47.783Z,44.21
2023-08-11T09:05:52.304Z,42.30
2023-08-11T09:07:55.077Z,45.81
2023-08-11T09:09:57.792Z,48.34
2023-08-11T09:12:02.229Z,48.44
2023-08-11T09:14:05.784Z,44.25
2023-08-11T09:16:08.545Z,42.75
2023-08-11T09:18:16.964Z,44.23
2023-08-11T09:20:20.740Z,41.72
2023-08-11T09:22:26.239Z,42.21
2023-08-11T09:24:31.437Z,40.54
2023-08-11T09:26:34.108Z,43.24
2023-08-11T09:28:36.961Z,44.21
2023-08-11T09:30:40.143Z,42.51
2023-08-11T09:32:42.895Z,45.47
2023-08-11T09:34:46.099Z,43.40
2023-08-11T09:36:50.805Z,41.00
2023-08-11T09:38:54.862Z,41.44
2023-08-11T09:41:01.888Z,40.88
2023-08-11T09:43:04.863Z,40.63
2023-08-11T09:45:09.824Z,40.01
2023-08-11T09:47:21.219Z,38.60
2023-08-11T09:49:25.125Z,39.86
2023-08-11T09:51:27.012Z,41.41
2023-08-11T09:53:31.222Z,43.56
2023-08-11T09:55:39.364Z,42.44
2023-08-11T09:57:43.305Z,41.51
2023-08-11T09:59:47.416Z,41.04
2023-08-11T10:01:53.392Z,39.92
2023-08-11T10:03:59.279Z,45.05
2023-08-11T10:06:02.966Z,39.70
2023-08-11T10:08:06.504Z,39.73
2023-08-11T10:10:13.219Z,39.96
2023-08-11T10:12:18.269Z,41.23
2023-08-11T10:14:22.921Z,39.64
2023-08-11T10:16:28.895Z,40.99
2023-08-11T10:18:33.595Z,40.87
2023-08-11T10:20:36.566Z,41.22
2023-08-11T10:22:39.732Z,41.91
2023-08-11T10:24:44.605Z,45.92
2023-08-11T10:26:47.665Z,42.36
2023-08-11T10:28:52.441Z,40.30
2023-08-11T10:30:58.704Z,41.57
2023-08-11T10:33:06.787Z,41.68
2023-08-11T10:35:18.883Z,42.54
2023-08-11T10:37:25.961Z,43.15
2023-08-11T10:39:28.786Z,45.83
2023-08-11T10:41:31.947Z,42.87
2023-08-11T10:43:36.414Z,43.18
2023-08-11T10:45:42.563Z,43.30
2023-08-11T10:47:52.917Z,45.82
2023-08-11T10:49:56.820Z,43.46
2023-08-11T10:52:00.987Z,44.96
2023-08-11T10:54:10.295Z,45.67
2023-08-11T10:56:14.577Z,48.04
2023-08-11T10:58:21.632Z,46.16
2023-08-11T11:00:24.311Z,46.98
2023-08-11T11:02:28.403Z,46.54
2023-08-11T11:04:33.201Z,47.43
2023-08-11T11:06:35.991Z,46.40
2023-08-11T11:08:38.710Z,45.89
2023-08-11T11:10:50.044Z,46.81
2023-08-11T11:12:53.690Z,47.30
2023-08-11T11:14:56.558Z,48.46
2023-08-11T11:17:00.444Z,48.80
2023-08-11T11:19:06.986Z,48.72
2023-08-11T11:21:09.814Z,47.85
2023-08-11T11:23:12.525Z,47.95
2023-08-11T11:25:15.261Z,47.73
2023-08-11T11:27:18.003Z,48.80
2023-08-11T11:29:24.629Z,48.43
2023-08-11T11:31:29.190Z,49.46
2023-08-11T11:33:31.554Z,47.66
2023-08-11T11:35:35.652Z,48.06
2023-08-11T11:37:38.730Z,48.55
2023-08-11T11:39:40.899Z,49.32
2023-08-11T11:41:43.583Z,48.87
2023-08-11T11:43:48.442Z,47.66
2023-08-11T11:45:53.517Z,47.51
2023-08-11T11:47:56.650Z,48.17
2023-08-11T11:50:00.409Z,46.81
2023-08-11T11:52:04.921Z,47.75
2023-08-11T11:54:07.656Z,46.95
2023-08-11T11:56:14.162Z,47.68
2023-08-11T11:58:17.129Z,47.48
2023-08-11T12:00:21.640Z,48.24
2023-08-11T12:02:24.379Z,48.51
2023-08-11T12:04:27.405Z,46.99
2023-08-11T12:06:31.148Z,44.88
2023-08-11T12:08:35.909Z,46.01
2023-08-11T12:10:38.605Z,46.98
2023-08-11T12:12:41.321Z,46.61
2023-08-11T12:14:44.050Z,47.22
2023-08-11T12:16:46.798Z,47.13
2023-08-11T12:18:49.723Z,46.64
2023-08-11T12:20:52.589Z,46.57
2023-08-11T12:22:55.336Z,47.59
2023-08-11T12:24:59.392Z,47.01
2023-08-11T12:27:02.243Z,46.68
2023-08-11T12:29:06.367Z,45.00
2023-08-11T12:31:11.652Z,45.69
2023-08-11T12:33:17.266Z,46.97
2023-08-11T12:35:20.029Z,46.08
2023-08-11T12:37:22.749Z,45.69
2023-08-11T12:39:25.575Z,45.33
2023-08-11T12:41:29.691Z,45.81
2023-08-11T12:43:32.415Z,45.09
2023-08-11T12:45:35.091Z,44.15
2023-08-11T12:47:37.833Z,43.56
2023-08-11T12:49:40.564Z,45.38
2023-08-11T12:51:43.279Z,43.71
2023-08-11T12:53:46.090Z,45.32
2023-08-11T12:55:48.850Z,46.28
2023-08-11T12:57:52.228Z,45.81
2023-08-11T12:59:54.885Z,46.03
2023-08-11T13:01:57.674Z,46.53
2023-08-11T13:04:02.633Z,46.02
2023-08-11T13:06:05.409Z,46.33
2023-08-11T13:08:08.532Z,45.36
2023-08-11T13:10:11.815Z,43.59
2023-08-11T13:12:14.501Z,43.42
2023-08-11T13:14:18.540Z,43.54
2023-08-11T13:16:21.332Z,45.16
2023-08-11T13:18:24.085Z,45.19
2023-08-11T13:20:26.952Z,45.80
2023-08-11T13:22:29.666Z,46.02
2023-08-11T13:24:33.081Z,45.01
2023-08-11T13:26:35.771Z,45.70
2023-08-11T13:28:38.486Z,45.69
2023-08-11T13:30:43.664Z,45.16
2023-08-11T13:32:46.518Z,45.11
2023-08-11T13:34:49.349Z,44.87
2023-08-11T13:36:52.203Z,46.47
2023-08-11T13:38:53.906Z,46.05
2023-08-11T13:40:57.497Z,45.92
2023-08-11T13:43:00.245Z,46.10
2023-08-11T13:45:02.964Z,46.59
2023-08-11T13:47:07.282Z,45.85
2023-08-11T13:49:10.766Z,46.17
2023-08-11T13:51:13.447Z,45.49
2023-08-11T13:53:16.541Z,46.11
2023-08-11T13:55:19.450Z,45.82
2023-08-11T13:57:22.110Z,45.83
2023-08-11T13:59:24.868Z,45.25
2023-08-11T14:01:27.592Z,46.55
2023-08-11T14:03:31.651Z,46.27
2023-08-11T14:05:35.700Z,45.80
2023-08-11T14:07:38.416Z,46.05
2023-08-11T14:09:41.169Z,45.92
2023-08-11T14:11:43.927Z,45.39
2023-08-11T14:13:46.633Z,44.77
2023-08-11T14:15:49.481Z,45.94
2023-08-11T14:17:52.258Z,46.41
2023-08-11T14:19:56.296Z,45.37
2023-08-11T14:21:58.969Z,46.12
2023-08-11T14:24:01.647Z,46.46
2023-08-11T14:26:04.422Z,45.84
2023-08-11T14:28:07.310Z,46.09
2023-08-11T14:30:10.850Z,44.62
2023-08-11T14:32:23.047Z,45.53
2023-08-11T14:34:27.851Z,45.95
2023-08-11T14:36:32.124Z,45.24
2023-08-11T14:38:34.806Z,45.96
2023-08-11T14:40:37.507Z,45.93
2023-08-11T14:42:41.343Z,45.88
2023-08-11T14:44:44.438Z,46.04
2023-08-11T14:46:47.186Z,45.65
2023-08-11T14:48:49.914Z,46.80
2023-08-11T14:50:52.940Z,46.68
2023-08-11T14:52:57.045Z,47.24
2023-08-11T14:54:59.771Z,46.26
2023-08-11T14:57:02.540Z,47.00
2023-08-11T14:59:05.422Z,46.93
2023-08-11T15:01:08.321Z,46.69
2023-08-11T15:03:11.134Z,46.83
2023-08-11T15:05:14.020Z,46.93
2023-08-11T15:07:16.922Z,46.52
2023-08-11T15:09:21.033Z,46.84
2023-08-11T15:11:23.781Z,47.08
2023-08-11T15:13:26.521Z,46.84
2023-08-11T15:15:29.393Z,46.67
2023-08-11T15:17:32.158Z,46.52
2023-08-11T15:19:34.879Z,46.92
2023-08-11T15:21:37.583Z,46.21
2023-08-11T15:23:40.572Z,46.37
2023-08-11T15:25:44.644Z,46.97
2023-08-11T15:27:47.349Z,46.60
2023-08-11T15:29:50.033Z,46.65
2023-08-11T15:31:54.606Z,46.98
2023-08-11T15:33:57.675Z,46.76
2023-08-11T15:36:00.468Z,46.17
2023-08-11T15:38:03.124Z,46.06
2023-08-11T15:40:07.149Z,46.63
2023-08-11T15:42:11.474Z,47.01
2023-08-11T15:44:14.386Z,47.47
2023-08-11T15:46:17.166Z,47.58
2023-08-11T15:48:19.923Z,47.52
2023-08-11T15:50:22.681Z,47.46
2023-08-11T15:52:25.456Z,46.94
2023-08-11T15:54:27.170Z,47.34
2023-08-11T15:56:29.912Z,47.85
2023-08-11T15:58:33.933Z,47.62
2023-08-11T16:00:38.629Z,47.79
2023-08-11T16:02:40.718Z,47.59
2023-08-11T16:04:43.531Z,47.47
2023-08-11T16:06:46.288Z,47.60
2023-08-11T16:08:48.986Z,47.63
2023-08-11T16:10:51.681Z,47.24
2023-08-11T16:12:54.507Z,48.05
2023-08-11T16:14:58.659Z,47.17
2023-08-11T16:17:01.401Z,48.03
2023-08-11T16:19:04.135Z,48.06
2023-08-11T16:21:06.905Z,47.86
2023-08-11T16:23:09.640Z,48.07
2023-08-11T16:25:12.424Z,48.12
2023-08-11T16:27:15.099Z,48.25
2023-08-11T16:29:17.861Z,48.56
2023-08-11T16:31:21.980Z,49.13
2023-08-11T16:33:24.705Z,49.22
2023-08-11T16:35:27.545Z,49.72
2023-08-11T16:37:31.064Z,49.34
2023-08-11T16:39:33.819Z,49.52
2023-08-11T16:41:36.539Z,49.00
2023-08-11T16:43:39.191Z,48.45
2023-08-11T16:45:40.916Z,49.34
2023-08-11T16:47:44.968Z,48.41
2023-08-11T16:49:47.639Z,49.31
2023-08-11T16:51:50.368Z,49.51
2023-08-11T16:53:53.049Z,48.82
2023-08-11T16:55:55.761Z,49.67
2023-08-11T16:57:58.486Z,49.44
2023-08-11T17:00:01.264Z,49.34
2023-08-11T17:02:03.951Z,50.12
2023-08-11T17:04:08.485Z,49.99
2023-08-11T17:06:14.114Z,50.61
2023-08-11T17:08:16.802Z,50.33
2023-08-11T17:10:19.555Z,50.65
2023-08-11T17:12:22.315Z,50.55
2023-08-11T17:14:25.088Z,51.41
2023-08-11T17:16:30.053Z,50.75
2023-08-11T17:18:31.875Z,50.95
2023-08-11T17:20:37.034Z,51.40
2023-08-11T17:22:39.698Z,51.78
2023-08-11T17:24:42.644Z,51.88
2023-08-11T17:26:45.368Z,52.43
2023-08-11T17:28:48.964Z,51.69
2023-08-11T17:30:50.744Z,51.99
2023-08-11T17:32:53.424Z,52.86
2023-08-11T17:34:58.606Z,53.10
2023-08-11T17:37:03.355Z,52.91
2023-08-11T17:39:07.337Z,53.02
2023-08-11T17:41:10.604Z,53.18
2023-08-11T17:43:13.304Z,54.34
2023-08-11T17:45:16.036Z,53.68
2023-08-11T17:47:18.733Z,54.28
2023-08-11T17:49:21.393Z,54.26
2023-08-11T17:51:24.314Z,54.70
2023-08-11T17:53:28.379Z,55.02
2023-08-11T17:55:31.134Z,55.73
2023-08-11T17:57:33.860Z,56.05
2023-08-11T17:59:36.768Z,56.79
2023-08-11T18:01:39.896Z,58.24
2023-08-11T18:03:41.649Z,56.75
2023-08-11T18:05:44.709Z,57.72
2023-08-11T18:07:47.488Z,57.86
2023-08-11T18:09:52.113Z,57.84
2023-08-11T18:11:54.804Z,57.31
2023-08-11T18:13:57.862Z,57.60
2023-08-11T18:16:00.557Z,58.17
2023-08-11T18:18:03.276Z,58.00
2023-08-11T18:20:07.586Z,58.39
2023-08-11T18:22:10.464Z,58.44
2023-08-11T18:24:13.269Z,59.02
2023-08-11T18:26:18.063Z,60.56
2023-08-11T18:28:20.808Z,60.08
2023-08-11T18:30:23.674Z,60.48
2023-08-11T18:32:26.430Z,61.38
2023-08-11T18:34:29.154Z,59.86
2023-08-11T18:36:31.859Z,61.10
2023-08-11T18:38:33.691Z,61.83
2023-08-11T18:40:36.428Z,62.00
2023-08-11T18:42:40.440Z,63.63
2023-08-11T18:44:43.317Z,64.82
2023-08-11T18:46:46.115Z,64.74
2023-08-11T18:48:49.796Z,63.68
2023-08-11T18:50:53.176Z,61.92
2023-08-11T18:52:55.895Z,63.62
2023-08-11T18:54:58.588Z,63.40
2023-08-11T18:57:01.294Z,62.86
2023-08-11T18:59:05.361Z,64.79
2023-08-11T19:01:08.145Z,64.00
2023-08-11T19:03:10.977Z,63.40
2023-08-11T19:05:13.790Z,64.44
2023-08-11T19:07:15.508Z,65.00
2023-08-11T19:09:18.245Z,63.47
2023-08-11T19:11:23.574Z,64.36
2023-08-11T19:13:26.292Z,64.54
2023-08-11T19:15:30.579Z,65.67
2023-08-11T19:17:33.273Z,65.14
2023-08-11T19:19:36.016Z,64.50
2023-08-11T19:21:38.825Z,65.36
2023-08-11T19:23:41.502Z,65.19
2023-08-11T19:25:44.394Z,65.48
2023-08-11T19:27:47.057Z,65.55
2023-08-11T19:29:50.482Z,65.12
2023-08-11T19:31:54.553Z,65.12
2023-08-11T19:33:57.293Z,65.18
2023-08-11T19:36:00.793Z,66.09
2023-08-11T19:38:04.821Z,65.58
2023-08-11T19:40:08.689Z,66.53
2023-08-11T19:42:11.665Z,66.22
2023-08-11T19:44:15.980Z,65.97
2023-08-11T19:46:18.663Z,66.29
2023-08-11T19:48:22.775Z,66.43
2023-08-11T19:50:25.516Z,66.66
2023-08-11T19:52:28.253Z,66.56
2023-08-11T19:54:30.931Z,67.20
2023-08-11T19:56:33.713Z,67.42
2023-08-11T19:58:36.382Z,67.51
2023-08-11T20:00:39.091Z,66.63
2023-08-11T20:02:42.074Z,67.30
2023-08-11T20:04:46.181Z,68.11
2023-08-11T20:06:49.028Z,67.74
2023-08-11T20:08:51.840Z,68.36
2023-08-11T20:10:54.905Z,68.74
2023-08-11T20:12:57.585Z,69.21
2023-08-11T20:15:00.250Z,68.98
2023-08-11T20:17:04.589Z,70.44
2023-08-11T20:19:07.452Z,70.52
2023-08-11T20:21:11.532Z,69.35
2023-08-11T20:23:14.297Z,69.77
2023-08-11T20:25:17.126Z,70.41
2023-08-11T20:27:22.744Z,70.20
2023-08-11T20:29:26.124Z,69.76
2023-08-11T20:31:32.589Z,70.63
2023-08-11T20:33:35.579Z,70.41
2023-08-11T20:35:38.276Z,71.62
2023-08-11T20:37:42.367Z,72.26
2023-08-11T20:39:45.047Z,72.01
2023-08-11T20:41:47.766Z,71.48
2023-08-11T20:43:49.772Z,72.12
2023-08-11T20:45:53.075Z,72.95
2023-08-11T20:47:55.976Z,72.51
2023-08-11T20:49:58.914Z,72.88
2023-08-11T20:52:01.914Z,71.54
2023-08-11T20:54:06.453Z,71.67
2023-08-11T20:56:10.722Z,72.38
2023-08-11T20:58:12.492Z,72.98
2023-08-11T21:00:16.341Z,74.20
2023-08-11T21:02:19.173Z,75.14
2023-08-11T21:04:22.050Z,75.91
2023-08-11T21:06:24.873Z,75.25
2023-08-11T21:08:27.641Z,75.22
2023-08-11T21:10:31.728Z,75.34
2023-08-11T21:12:34.617Z,76.52
2023-08-11T21:14:37.370Z,76.70
2023-08-11T21:16:40.824Z,78.79
2023-08-11T21:18:43.766Z,79.03
2023-08-11T21:20:46.623Z,79.68
2023-08-11T21:22:49.304Z,78.69
2023-08-11T21:24:52.085Z,79.23
2023-08-11T21:26:56.249Z,80.41
2023-08-11T21:28:59.023Z,78.29
2023-08-11T21:31:16.947Z,78.40
2023-08-11T21:33:21.134Z,77.98
2023-08-11T21:37:26.291Z,81.30
2023-08-11T21:39:29.061Z,79.69
2023-08-11T21:41:32.524Z,79.49
2023-08-11T21:43:36.597Z,79.70
2023-08-11T21:45:39.952Z,80.38
2023-08-11T21:47:42.708Z,81.03
2023-08-11T21:49:45.471Z,81.01
2023-08-11T21:51:48.132Z,81.30
2023-08-11T21:53:50.950Z,80.22
2023-08-11T21:55:53.667Z,83.36
2023-08-11T21:57:58.102Z,82.68
2023-08-11T22:00:02.510Z,80.36
2023-08-11T22:02:04.508Z,82.03
2023-08-11T22:04:07.740Z,80.71
2023-08-11T22:06:13.722Z,79.75
2023-08-11T22:08:16.426Z,81.64
2023-08-11T22:10:19.247Z,84.58
2023-08-11T22:12:21.919Z,81.47
2023-08-11T22:14:24.686Z,81.62
2023-08-11T22:16:27.878Z,82.33
2023-08-11T22:18:30.629Z,83.09
2023-08-11T22:20:34.312Z,82.65
2023-08-11T22:22:36.985Z,82.58
2023-08-11T22:24:41.522Z,84.14
2023-08-11T22:26:43.715Z,84.19
2023-08-11T22:28:46.467Z,81.32
2023-08-11T22:30:51.184Z,79.20
2023-08-11T22:32:55.357Z,79.13
2023-08-11T22:34:58.191Z,82.28
2023-08-11T22:37:00.889Z,81.97
2023-08-11T22:39:04.355Z,80.21
2023-08-11T22:41:07.059Z,82.01
2023-08-11T22:43:09.730Z,81.31
2023-08-11T22:45:11.503Z,82.31
2023-08-11T22:47:14.526Z,83.50
2023-08-11T22:49:18.675Z,85.22
2023-08-11T22:51:21.713Z,83.30
2023-08-11T22:53:23.502Z,84.25
2023-08-11T22:55:26.230Z,84.19
2023-08-11T22:57:28.876Z,84.96
2023-08-11T22:59:31.580Z,87.08
2023-08-11T23:01:34.333Z,87.49
2023-08-11T23:03:37.042Z,88.07
2023-08-11T23:05:41.087Z,86.89
2023-08-11T23:07:43.761Z,87.94
2023-08-11T23:09:46.775Z,87.54
2023-08-11T23:11:49.489Z,88.41
2023-08-11T23:13:52.162Z,87.00
2023-08-11T23:15:55.099Z,87.07
2023-08-11T23:17:58.688Z,88.15
2023-08-11T23:20:01.897Z,90.68
2023-08-11T23:22:06.046Z,91.67
2023-08-11T23:24:09.942Z,91.96
2023-08-11T23:26:11.701Z,92.31
2023-08-11T23:28:14.424Z,92.79
2023-08-11T23:30:17.196Z,92.67
2023-08-11T23:32:19.974Z,92.78
2023-08-11T23:34:22.983Z,91.40
2023-08-11T23:36:26.734Z,92.38
2023-08-11T23:38:30.824Z,92.39
2023-08-11T23:40:33.674Z,93.77
2023-08-11T23:42:36.446Z,93.34
2023-08-11T23:44:39.149Z,92.72
2023-08-11T23:46:41.822Z,94.05
2023-08-11T23:48:44.732Z,93.87
2023-08-11T23:50:47.522Z,93.51
2023-08-11T23:52:50.854Z,92.34
2023-08-11T23:54:54.030Z,92.59
2023-08-11T23:56:56.818Z,93.90
2023-08-11T23:58:59.492Z,94.48
